sensor_id;sensor_type;location;lat;lon;timestamp;P1;durP1;ratioP1;P2;durP2;ratioP2
66256;SDS011;53049;43.446;3.698;2023-05-07T00:02:24;5.97;;;4.00;;
66256;SDS011;53049;43.446;3.698;2023-05-07T00:04:50;8.18;;;4.40;;
66256;SDS011;53049;43.446;3.698;2023-05-07T00:07:17;7.68;;;4.45;;
66256;SDS011;53049;43.446;3.698;2023-05-07T00:09:42;6.03;;;4.20;;
66256;SDS011;53049;43.446;3.698;2023-05-07T00:12:08;8.98;;;4.80;;
66256;SDS011;53049;43.446;3.698;2023-05-07T00:14:34;6.55;;;4.75;;
66256;SDS011;53049;43.446;3.698;2023-05-07T00:17:00;6.35;;;4.53;;
66256;SDS011;53049;43.446;3.698;2023-05-07T00:19:25;6.97;;;5.45;;
66256;SDS011;53049;43.446;3.698;2023-05-07T00:21:51;8.73;;;5.00;;
66256;SDS011;53049;43.446;3.698;2023-05-07T00:24:18;9.23;;;4.82;;
66256;SDS011;53049;43.446;3.698;2023-05-07T00:26:44;6.82;;;4.47;;
66256;SDS011;53049;43.446;3.698;2023-05-07T00:29:10;6.75;;;4.40;;
66256;SDS011;53049;43.446;3.698;2023-05-07T00:31:36;5.75;;;4.35;;
66256;SDS011;53049;43.446;3.698;2023-05-07T00:34:02;7.22;;;4.63;;
66256;SDS011;53049;43.446;3.698;2023-05-07T00:36:27;7.72;;;5.32;;
66256;SDS011;53049;43.446;3.698;2023-05-07T00:38:54;8.27;;;4.78;;
66256;SDS011;53049;43.446;3.698;2023-05-07T00:41:20;7.00;;;5.30;;
66256;SDS011;53049;43.446;3.698;2023-05-07T00:43:46;7.78;;;5.22;;
66256;SDS011;53049;43.446;3.698;2023-05-07T00:46:12;8.23;;;4.50;;
66256;SDS011;53049;43.446;3.698;2023-05-07T00:48:38;8.07;;;5.15;;
66256;SDS011;53049;43.446;3.698;2023-05-07T00:51:04;6.50;;;4.43;;
66256;SDS011;53049;43.446;3.698;2023-05-07T00:53:30;7.95;;;4.88;;
66256;SDS011;53049;43.446;3.698;2023-05-07T00:55:56;6.85;;;4.65;;
66256;SDS011;53049;43.446;3.698;2023-05-07T00:58:22;6.18;;;4.38;;
66256;SDS011;53049;43.446;3.698;2023-05-07T01:00:48;6.30;;;4.60;;
66256;SDS011;53049;43.446;3.698;2023-05-07T01:03:14;8.20;;;4.43;;
66256;SDS011;53049;43.446;3.698;2023-05-07T01:05:40;5.90;;;4.38;;
66256;SDS011;53049;43.446;3.698;2023-05-07T01:08:07;7.22;;;4.82;;
66256;SDS011;53049;43.446;3.698;2023-05-07T01:10:33;6.85;;;4.82;;
66256;SDS011;53049;43.446;3.698;2023-05-07T01:12:59;5.57;;;4.22;;
66256;SDS011;53049;43.446;3.698;2023-05-07T01:15:26;5.40;;;4.35;;
66256;SDS011;53049;43.446;3.698;2023-05-07T01:17:51;6.82;;;4.40;;
66256;SDS011;53049;43.446;3.698;2023-05-07T01:20:17;7.88;;;4.45;;
66256;SDS011;53049;43.446;3.698;2023-05-07T01:22:44;6.38;;;4.28;;
66256;SDS011;53049;43.446;3.698;2023-05-07T01:25:10;7.90;;;4.20;;
66256;SDS011;53049;43.446;3.698;2023-05-07T01:27:36;7.18;;;4.40;;
66256;SDS011;53049;43.446;3.698;2023-05-07T01:30:05;8.35;;;4.35;;
66256;SDS011;53049;43.446;3.698;2023-05-07T01:32:32;9.90;;;4.28;;
66256;SDS011;53049;43.446;3.698;2023-05-07T01:35:05;6.47;;;4.63;;
66256;SDS011;53049;43.446;3.698;2023-05-07T01:37:33;7.68;;;5.10;;
66256;SDS011;53049;43.446;3.698;2023-05-07T01:39:59;7.03;;;4.38;;
66256;SDS011;53049;43.446;3.698;2023-05-07T01:42:25;6.50;;;4.60;;
66256;SDS011;53049;43.446;3.698;2023-05-07T01:44:51;8.98;;;4.82;;
66256;SDS011;53049;43.446;3.698;2023-05-07T01:47:17;6.35;;;4.75;;
66256;SDS011;53049;43.446;3.698;2023-05-07T01:49:43;7.43;;;5.40;;
66256;SDS011;53049;43.446;3.698;2023-05-07T01:52:10;8.70;;;4.90;;
66256;SDS011;53049;43.446;3.698;2023-05-07T01:54:36;7.97;;;5.22;;
66256;SDS011;53049;43.446;3.698;2023-05-07T01:57:02;6.63;;;4.70;;
66256;SDS011;53049;43.446;3.698;2023-05-07T01:59:28;6.93;;;5.18;;
66256;SDS011;53049;43.446;3.698;2023-05-07T02:01:53;8.43;;;5.40;;
66256;SDS011;53049;43.446;3.698;2023-05-07T02:04:19;7.75;;;5.03;;
66256;SDS011;53049;43.446;3.698;2023-05-07T02:06:45;7.65;;;5.45;;
66256;SDS011;53049;43.446;3.698;2023-05-07T02:09:11;6.70;;;4.93;;
66256;SDS011;53049;43.446;3.698;2023-05-07T02:11:36;7.00;;;4.97;;
66256;SDS011;53049;43.446;3.698;2023-05-07T02:14:02;7.93;;;5.28;;
66256;SDS011;53049;43.446;3.698;2023-05-07T02:16:28;7.78;;;5.10;;
66256;SDS011;53049;43.446;3.698;2023-05-07T02:18:53;8.07;;;4.82;;
66256;SDS011;53049;43.446;3.698;2023-05-07T02:21:19;7.50;;;5.32;;
66256;SDS011;53049;43.446;3.698;2023-05-07T02:23:45;8.15;;;5.18;;
66256;SDS011;53049;43.446;3.698;2023-05-07T02:26:11;7.18;;;4.63;;
66256;SDS011;53049;43.446;3.698;2023-05-07T02:28:36;7.95;;;4.90;;
66256;SDS011;53049;43.446;3.698;2023-05-07T02:31:02;7.20;;;4.75;;
66256;SDS011;53049;43.446;3.698;2023-05-07T02:33:29;7.25;;;4.78;;
66256;SDS011;53049;43.446;3.698;2023-05-07T02:35:55;8.07;;;5.05;;
66256;SDS011;53049;43.446;3.698;2023-05-07T02:38:21;6.82;;;5.03;;
66256;SDS011;53049;43.446;3.698;2023-05-07T02:40:47;7.15;;;4.72;;
66256;SDS011;53049;43.446;3.698;2023-05-07T02:43:13;7.45;;;5.22;;
66256;SDS011;53049;43.446;3.698;2023-05-07T02:45:38;8.27;;;4.85;;
66256;SDS011;53049;43.446;3.698;2023-05-07T02:48:04;9.32;;;5.00;;
66256;SDS011;53049;43.446;3.698;2023-05-07T02:50:31;7.80;;;5.38;;
66256;SDS011;53049;43.446;3.698;2023-05-07T02:52:57;6.05;;;4.72;;
66256;SDS011;53049;43.446;3.698;2023-05-07T02:55:23;7.75;;;5.13;;
66256;SDS011;53049;43.446;3.698;2023-05-07T02:57:49;6.00;;;4.43;;
66256;SDS011;53049;43.446;3.698;2023-05-07T03:00:16;7.38;;;4.55;;
66256;SDS011;53049;43.446;3.698;2023-05-07T03:02:43;7.00;;;4.57;;
66256;SDS011;53049;43.446;3.698;2023-05-07T03:05:09;7.32;;;5.13;;
66256;SDS011;53049;43.446;3.698;2023-05-07T03:07:35;7.18;;;4.90;;
66256;SDS011;53049;43.446;3.698;2023-05-07T03:10:01;6.95;;;5.00;;
66256;SDS011;53049;43.446;3.698;2023-05-07T03:12:27;8.32;;;4.75;;
66256;SDS011;53049;43.446;3.698;2023-05-07T03:14:53;6.82;;;4.70;;
66256;SDS011;53049;43.446;3.698;2023-05-07T03:17:20;7.32;;;4.55;;
66256;SDS011;53049;43.446;3.698;2023-05-07T03:19:46;8.27;;;5.20;;
66256;SDS011;53049;43.446;3.698;2023-05-07T03:22:12;7.28;;;4.47;;
66256;SDS011;53049;43.446;3.698;2023-05-07T03:24:37;7.57;;;4.70;;
66256;SDS011;53049;43.446;3.698;2023-05-07T03:27:03;8.35;;;5.00;;
66256;SDS011;53049;43.446;3.698;2023-05-07T03:29:28;7.72;;;5.18;;
66256;SDS011;53049;43.446;3.698;2023-05-07T03:31:54;7.10;;;5.10;;
66256;SDS011;53049;43.446;3.698;2023-05-07T03:34:20;6.93;;;5.32;;
66256;SDS011;53049;43.446;3.698;2023-05-07T03:36:48;8.38;;;5.03;;
66256;SDS011;53049;43.446;3.698;2023-05-07T03:39:14;8.02;;;5.28;;
66256;SDS011;53049;43.446;3.698;2023-05-07T03:41:40;6.80;;;5.10;;
66256;SDS011;53049;43.446;3.698;2023-05-07T03:44:05;6.50;;;5.03;;
66256;SDS011;53049;43.446;3.698;2023-05-07T03:46:31;7.93;;;5.15;;
66256;SDS011;53049;43.446;3.698;2023-05-07T03:48:57;8.57;;;5.60;;
66256;SDS011;53049;43.446;3.698;2023-05-07T03:51:23;8.82;;;5.40;;
66256;SDS011;53049;43.446;3.698;2023-05-07T03:53:49;8.18;;;5.57;;
66256;SDS011;53049;43.446;3.698;2023-05-07T03:56:17;9.15;;;5.60;;
66256;SDS011;53049;43.446;3.698;2023-05-07T03:58:44;8.07;;;5.40;;
66256;SDS011;53049;43.446;3.698;2023-05-07T04:01:09;8.38;;;5.20;;
66256;SDS011;53049;43.446;3.698;2023-05-07T04:03:35;8.25;;;5.68;;
66256;SDS011;53049;43.446;3.698;2023-05-07T04:06:01;7.25;;;5.38;;
66256;SDS011;53049;43.446;3.698;2023-05-07T04:08:27;7.35;;;5.43;;
66256;SDS011;53049;43.446;3.698;2023-05-07T04:10:54;8.18;;;5.57;;
66256;SDS011;53049;43.446;3.698;2023-05-07T04:13:23;9.77;;;5.45;;
66256;SDS011;53049;43.446;3.698;2023-05-07T04:15:50;9.05;;;5.90;;
66256;SDS011;53049;43.446;3.698;2023-05-07T04:18:16;6.97;;;5.15;;
66256;SDS011;53049;43.446;3.698;2023-05-07T04:20:42;8.65;;;5.15;;
66256;SDS011;53049;43.446;3.698;2023-05-07T04:23:07;9.13;;;5.20;;
66256;SDS011;53049;43.446;3.698;2023-05-07T04:25:33;7.32;;;5.38;;
66256;SDS011;53049;43.446;3.698;2023-05-07T04:27:59;10.63;;;5.60;;
66256;SDS011;53049;43.446;3.698;2023-05-07T04:30:25;8.07;;;5.40;;
66256;SDS011;53049;43.446;3.698;2023-05-07T04:32:51;8.32;;;5.47;;
66256;SDS011;53049;43.446;3.698;2023-05-07T04:35:17;7.88;;;5.75;;
66256;SDS011;53049;43.446;3.698;2023-05-07T04:37:43;8.15;;;5.30;;
66256;SDS011;53049;43.446;3.698;2023-05-07T04:40:09;9.57;;;5.45;;
66256;SDS011;53049;43.446;3.698;2023-05-07T04:42:35;8.13;;;5.38;;
66256;SDS011;53049;43.446;3.698;2023-05-07T04:45:01;7.10;;;4.93;;
66256;SDS011;53049;43.446;3.698;2023-05-07T04:47:27;8.70;;;5.57;;
66256;SDS011;53049;43.446;3.698;2023-05-07T04:49:53;7.00;;;4.85;;
66256;SDS011;53049;43.446;3.698;2023-05-07T04:52:18;8.50;;;5.03;;
66256;SDS011;53049;43.446;3.698;2023-05-07T04:54:44;7.75;;;5.50;;
66256;SDS011;53049;43.446;3.698;2023-05-07T04:57:10;12.90;;;6.45;;
66256;SDS011;53049;43.446;3.698;2023-05-07T04:59:36;10.50;;;5.70;;
66256;SDS011;53049;43.446;3.698;2023-05-07T05:02:01;10.02;;;5.70;;
66256;SDS011;53049;43.446;3.698;2023-05-07T05:04:29;7.40;;;5.65;;
66256;SDS011;53049;43.446;3.698;2023-05-07T05:06:55;6.70;;;5.45;;
66256;SDS011;53049;43.446;3.698;2023-05-07T05:09:20;7.32;;;4.93;;
66256;SDS011;53049;43.446;3.698;2023-05-07T05:11:46;8.70;;;5.38;;
66256;SDS011;53049;43.446;3.698;2023-05-07T05:14:12;7.40;;;5.55;;
66256;SDS011;53049;43.446;3.698;2023-05-07T05:16:38;8.50;;;5.35;;
66256;SDS011;53049;43.446;3.698;2023-05-07T05:19:03;8.63;;;5.38;;
66256;SDS011;53049;43.446;3.698;2023-05-07T05:21:29;7.35;;;5.22;;
66256;SDS011;53049;43.446;3.698;2023-05-07T05:23:56;8.05;;;4.97;;
66256;SDS011;53049;43.446;3.698;2023-05-07T05:26:21;9.02;;;5.55;;
66256;SDS011;53049;43.446;3.698;2023-05-07T05:28:47;8.45;;;5.30;;
66256;SDS011;53049;43.446;3.698;2023-05-07T05:31:12;8.40;;;5.47;;
66256;SDS011;53049;43.446;3.698;2023-05-07T05:33:39;5.97;;;4.30;;
66256;SDS011;53049;43.446;3.698;2023-05-07T05:36:05;9.00;;;3.95;;
66256;SDS011;53049;43.446;3.698;2023-05-07T05:38:31;10.02;;;3.78;;
66256;SDS011;53049;43.446;3.698;2023-05-07T05:40:57;8.18;;;3.83;;
66256;SDS011;53049;43.446;3.698;2023-05-07T05:43:22;6.22;;;4.15;;
66256;SDS011;53049;43.446;3.698;2023-05-07T05:45:48;5.55;;;4.03;;
66256;SDS011;53049;43.446;3.698;2023-05-07T05:48:14;5.60;;;4.10;;
66256;SDS011;53049;43.446;3.698;2023-05-07T05:50:39;5.45;;;3.45;;
66256;SDS011;53049;43.446;3.698;2023-05-07T05:53:06;5.28;;;3.38;;
66256;SDS011;53049;43.446;3.698;2023-05-07T05:55:32;5.10;;;3.38;;
66256;SDS011;53049;43.446;3.698;2023-05-07T05:57:59;6.03;;;3.40;;
66256;SDS011;53049;43.446;3.698;2023-05-07T06:00:25;6.90;;;3.90;;
66256;SDS011;53049;43.446;3.698;2023-05-07T06:02:51;5.88;;;3.22;;
66256;SDS011;53049;43.446;3.698;2023-05-07T06:05:17;5.55;;;2.90;;
66256;SDS011;53049;43.446;3.698;2023-05-07T06:07:43;6.50;;;3.47;;
66256;SDS011;53049;43.446;3.698;2023-05-07T06:10:09;5.70;;;2.92;;
66256;SDS011;53049;43.446;3.698;2023-05-07T06:12:34;5.55;;;3.00;;
66256;SDS011;53049;43.446;3.698;2023-05-07T06:15:00;4.95;;;2.70;;
66256;SDS011;53049;43.446;3.698;2023-05-07T06:17:26;4.38;;;2.65;;
66256;SDS011;53049;43.446;3.698;2023-05-07T06:19:52;4.40;;;2.30;;
66256;SDS011;53049;43.446;3.698;2023-05-07T06:22:17;6.05;;;2.45;;
66256;SDS011;53049;43.446;3.698;2023-05-07T06:24:43;4.90;;;2.58;;
66256;SDS011;53049;43.446;3.698;2023-05-07T06:27:09;4.95;;;2.42;;
66256;SDS011;53049;43.446;3.698;2023-05-07T06:29:35;5.72;;;2.10;;
66256;SDS011;53049;43.446;3.698;2023-05-07T06:32:07;5.57;;;2.20;;
66256;SDS011;53049;43.446;3.698;2023-05-07T06:34:33;4.15;;;2.05;;
66256;SDS011;53049;43.446;3.698;2023-05-07T06:36:59;3.25;;;2.10;;
66256;SDS011;53049;43.446;3.698;2023-05-07T06:39:25;3.20;;;2.10;;
66256;SDS011;53049;43.446;3.698;2023-05-07T06:41:50;3.80;;;1.95;;
66256;SDS011;53049;43.446;3.698;2023-05-07T06:44:16;3.72;;;2.20;;
66256;SDS011;53049;43.446;3.698;2023-05-07T06:46:42;3.88;;;2.30;;
66256;SDS011;53049;43.446;3.698;2023-05-07T06:49:07;5.28;;;2.40;;
66256;SDS011;53049;43.446;3.698;2023-05-07T06:51:33;3.72;;;1.90;;
66256;SDS011;53049;43.446;3.698;2023-05-07T06:53:59;2.97;;;2.08;;
66256;SDS011;53049;43.446;3.698;2023-05-07T06:56:25;2.92;;;1.85;;
66256;SDS011;53049;43.446;3.698;2023-05-07T06:58:50;3.08;;;2.20;;
66256;SDS011;53049;43.446;3.698;2023-05-07T07:01:16;3.03;;;2.00;;
66256;SDS011;53049;43.446;3.698;2023-05-07T07:03:42;2.85;;;1.50;;
66256;SDS011;53049;43.446;3.698;2023-05-07T07:06:07;3.05;;;1.85;;
66256;SDS011;53049;43.446;3.698;2023-05-07T07:08:33;2.80;;;1.80;;
66256;SDS011;53049;43.446;3.698;2023-05-07T07:10:59;2.28;;;1.80;;
66256;SDS011;53049;43.446;3.698;2023-05-07T07:13:25;4.40;;;2.00;;
66256;SDS011;53049;43.446;3.698;2023-05-07T07:15:51;3.97;;;2.15;;
66256;SDS011;53049;43.446;3.698;2023-05-07T07:18:18;2.80;;;1.80;;
66256;SDS011;53049;43.446;3.698;2023-05-07T07:20:43;2.45;;;1.63;;
66256;SDS011;53049;43.446;3.698;2023-05-07T07:23:09;4.65;;;2.00;;
66256;SDS011;53049;43.446;3.698;2023-05-07T07:25:35;3.83;;;2.15;;
66256;SDS011;53049;43.446;3.698;2023-05-07T07:28:01;2.13;;;1.60;;
66256;SDS011;53049;43.446;3.698;2023-05-07T07:30:26;2.20;;;1.70;;
66256;SDS011;53049;43.446;3.698;2023-05-07T07:32:52;3.45;;;1.67;;
66256;SDS011;53049;43.446;3.698;2023-05-07T07:35:18;1.98;;;1.30;;
66256;SDS011;53049;43.446;3.698;2023-05-07T07:37:44;3.28;;;1.40;;
66256;SDS011;53049;43.446;3.698;2023-05-07T07:40:10;2.05;;;1.38;;
66256;SDS011;53049;43.446;3.698;2023-05-07T07:42:36;1.92;;;1.35;;
66256;SDS011;53049;43.446;3.698;2023-05-07T07:45:02;3.42;;;1.50;;
66256;SDS011;53049;43.446;3.698;2023-05-07T07:47:28;1.88;;;1.30;;
66256;SDS011;53049;43.446;3.698;2023-05-07T07:49:54;2.90;;;1.35;;
66256;SDS011;53049;43.446;3.698;2023-05-07T07:52:20;4.15;;;1.48;;
66256;SDS011;53049;43.446;3.698;2023-05-07T07:54:46;3.60;;;1.70;;
66256;SDS011;53049;43.446;3.698;2023-05-07T07:57:12;2.20;;;1.50;;
66256;SDS011;53049;43.446;3.698;2023-05-07T07:59:37;2.55;;;1.50;;
66256;SDS011;53049;43.446;3.698;2023-05-07T08:02:03;2.28;;;1.50;;
66256;SDS011;53049;43.446;3.698;2023-05-07T08:04:31;2.92;;;1.50;;
66256;SDS011;53049;43.446;3.698;2023-05-07T08:06:58;2.83;;;1.50;;
66256;SDS011;53049;43.446;3.698;2023-05-07T08:09:23;2.33;;;1.67;;
66256;SDS011;53049;43.446;3.698;2023-05-07T08:11:49;2.78;;;1.50;;
66256;SDS011;53049;43.446;3.698;2023-05-07T08:14:15;1.55;;;1.45;;
66256;SDS011;53049;43.446;3.698;2023-05-07T08:16:41;3.38;;;1.60;;
66256;SDS011;53049;43.446;3.698;2023-05-07T08:19:06;2.90;;;1.60;;
66256;SDS011;53049;43.446;3.698;2023-05-07T08:21:32;3.83;;;1.50;;
66256;SDS011;53049;43.446;3.698;2023-05-07T08:23:58;1.55;;;1.42;;
66256;SDS011;53049;43.446;3.698;2023-05-07T08:26:23;1.88;;;1.50;;
66256;SDS011;53049;43.446;3.698;2023-05-07T08:28:49;2.28;;;1.50;;
66256;SDS011;53049;43.446;3.698;2023-05-07T08:31:14;2.70;;;1.45;;
66256;SDS011;53049;43.446;3.698;2023-05-07T08:33:40;2.88;;;1.40;;
66256;SDS011;53049;43.446;3.698;2023-05-07T08:36:06;1.25;;;1.15;;
66256;SDS011;53049;43.446;3.698;2023-05-07T08:38:32;4.25;;;1.38;;
66256;SDS011;53049;43.446;3.698;2023-05-07T08:40:58;2.17;;;1.45;;
66256;SDS011;53049;43.446;3.698;2023-05-07T08:43:24;1.38;;;1.23;;
66256;SDS011;53049;43.446;3.698;2023-05-07T08:45:53;3.50;;;1.50;;
66256;SDS011;53049;43.446;3.698;2023-05-07T08:48:21;1.98;;;1.38;;
66256;SDS011;53049;43.446;3.698;2023-05-07T08:50:50;3.25;;;1.50;;
66256;SDS011;53049;43.446;3.698;2023-05-07T08:53:16;1.50;;;1.40;;
66256;SDS011;53049;43.446;3.698;2023-05-07T08:55:42;2.63;;;1.33;;
66256;SDS011;53049;43.446;3.698;2023-05-07T08:58:08;2.05;;;1.48;;
66256;SDS011;53049;43.446;3.698;2023-05-07T09:00:34;4.00;;;1.50;;
66256;SDS011;53049;43.446;3.698;2023-05-07T09:03:02;3.35;;;1.50;;
66256;SDS011;53049;43.446;3.698;2023-05-07T09:05:28;2.25;;;1.70;;
66256;SDS011;53049;43.446;3.698;2023-05-07T09:07:54;3.60;;;2.00;;
66256;SDS011;53049;43.446;3.698;2023-05-07T09:10:20;3.35;;;2.10;;
66256;SDS011;53049;43.446;3.698;2023-05-07T09:12:46;7.78;;;1.70;;
66256;SDS011;53049;43.446;3.698;2023-05-07T09:15:12;2.97;;;1.50;;
66256;SDS011;53049;43.446;3.698;2023-05-07T09:17:38;2.42;;;1.35;;
66256;SDS011;53049;43.446;3.698;2023-05-07T09:20:06;4.57;;;2.25;;
66256;SDS011;53049;43.446;3.698;2023-05-07T09:22:32;2.47;;;1.60;;
66256;SDS011;53049;43.446;3.698;2023-05-07T09:24:58;2.95;;;2.13;;
66256;SDS011;53049;43.446;3.698;2023-05-07T09:27:24;4.35;;;2.10;;
66256;SDS011;53049;43.446;3.698;2023-05-07T09:29:51;3.40;;;1.75;;
66256;SDS011;53049;43.446;3.698;2023-05-07T09:32:17;2.90;;;1.50;;
66256;SDS011;53049;43.446;3.698;2023-05-07T09:34:43;1.60;;;1.50;;
66256;SDS011;53049;43.446;3.698;2023-05-07T09:37:08;5.30;;;2.17;;
66256;SDS011;53049;43.446;3.698;2023-05-07T09:39:44;2.78;;;1.60;;
66256;SDS011;53049;43.446;3.698;2023-05-07T09:42:11;4.88;;;1.85;;
66256;SDS011;53049;43.446;3.698;2023-05-07T09:44:38;1.83;;;1.30;;
66256;SDS011;53049;43.446;3.698;2023-05-07T09:47:07;2.78;;;1.70;;
66256;SDS011;53049;43.446;3.698;2023-05-07T09:49:34;1.15;;;1.15;;
66256;SDS011;53049;43.446;3.698;2023-05-07T09:52:02;2.10;;;1.58;;
66256;SDS011;53049;43.446;3.698;2023-05-07T09:54:31;3.97;;;1.60;;
66256;SDS011;53049;43.446;3.698;2023-05-07T09:56:59;3.35;;;1.67;;
66256;SDS011;53049;43.446;3.698;2023-05-07T09:59:27;2.10;;;1.50;;
66256;SDS011;53049;43.446;3.698;2023-05-07T10:01:56;3.03;;;1.60;;
66256;SDS011;53049;43.446;3.698;2023-05-07T10:04:24;3.80;;;1.60;;
66256;SDS011;53049;43.446;3.698;2023-05-07T10:06:50;2.92;;;1.52;;
66256;SDS011;53049;43.446;3.698;2023-05-07T10:09:17;2.50;;;1.60;;
66256;SDS011;53049;43.446;3.698;2023-05-07T10:11:43;2.85;;;1.90;;
66256;SDS011;53049;43.446;3.698;2023-05-07T10:14:10;3.40;;;1.80;;
66256;SDS011;53049;43.446;3.698;2023-05-07T10:16:36;3.25;;;1.88;;
66256;SDS011;53049;43.446;3.698;2023-05-07T10:19:06;3.25;;;1.77;;
66256;SDS011;53049;43.446;3.698;2023-05-07T10:21:48;2.78;;;1.35;;
66256;SDS011;53049;43.446;3.698;2023-05-07T10:24:21;7.38;;;1.60;;
66256;SDS011;53049;43.446;3.698;2023-05-07T10:26:52;2.70;;;1.48;;
66256;SDS011;53049;43.446;3.698;2023-05-07T10:31:57;2.78;;;1.27;;
66256;SDS011;53049;43.446;3.698;2023-05-07T10:34:37;1.48;;;1.30;;
66256;SDS011;53049;43.446;3.698;2023-05-07T10:37:06;3.55;;;1.60;;
66256;SDS011;53049;43.446;3.698;2023-05-07T10:39:34;1.17;;;1.10;;
66256;SDS011;53049;43.446;3.698;2023-05-07T10:42:12;1.83;;;1.50;;
66256;SDS011;53049;43.446;3.698;2023-05-07T10:44:40;4.07;;;1.52;;
66256;SDS011;53049;43.446;3.698;2023-05-07T10:47:07;2.67;;;1.80;;
66256;SDS011;53049;43.446;3.698;2023-05-07T10:49:34;3.67;;;1.40;;
66256;SDS011;53049;43.446;3.698;2023-05-07T10:52:10;1.85;;;1.20;;
66256;SDS011;53049;43.446;3.698;2023-05-07T10:54:43;2.50;;;1.30;;
66256;SDS011;53049;43.446;3.698;2023-05-07T10:59:58;1.58;;;1.30;;
66256;SDS011;53049;43.446;3.698;2023-05-07T11:02:45;3.05;;;1.30;;
66256;SDS011;53049;43.446;3.698;2023-05-07T11:05:33;4.13;;;1.20;;
66256;SDS011;53049;43.446;3.698;2023-05-07T11:08:00;1.25;;;1.15;;
66256;SDS011;53049;43.446;3.698;2023-05-07T11:13:18;2.10;;;1.40;;
66256;SDS011;53049;43.446;3.698;2023-05-07T11:18:51;1.50;;;1.38;;
66256;SDS011;53049;43.446;3.698;2023-05-07T11:21:31;1.75;;;1.20;;
66256;SDS011;53049;43.446;3.698;2023-05-07T11:24:07;1.52;;;1.33;;
66256;SDS011;53049;43.446;3.698;2023-05-07T11:29:12;2.03;;;1.30;;
66256;SDS011;53049;43.446;3.698;2023-05-07T11:31:38;1.38;;;1.23;;
66256;SDS011;53049;43.446;3.698;2023-05-07T11:34:04;2.72;;;1.20;;
66256;SDS011;53049;43.446;3.698;2023-05-07T11:36:32;2.30;;;1.60;;
66256;SDS011;53049;43.446;3.698;2023-05-07T11:38:58;3.15;;;1.60;;
66256;SDS011;53049;43.446;3.698;2023-05-07T11:41:45;1.70;;;1.30;;
66256;SDS011;53049;43.446;3.698;2023-05-07T11:44:10;1.42;;;1.30;;
66256;SDS011;53049;43.446;3.698;2023-05-07T11:46:35;1.45;;;1.27;;
66256;SDS011;53049;43.446;3.698;2023-05-07T11:49:01;1.80;;;1.15;;
66256;SDS011;53049;43.446;3.698;2023-05-07T11:51:26;1.73;;;1.20;;
66256;SDS011;53049;43.446;3.698;2023-05-07T11:53:52;1.75;;;1.30;;
66256;SDS011;53049;43.446;3.698;2023-05-07T11:56:18;2.63;;;1.50;;
66256;SDS011;53049;43.446;3.698;2023-05-07T11:58:46;3.47;;;1.75;;
66256;SDS011;53049;43.446;3.698;2023-05-07T12:01:12;3.75;;;1.55;;
66256;SDS011;53049;43.446;3.698;2023-05-07T12:03:41;3.92;;;1.60;;
66256;SDS011;53049;43.446;3.698;2023-05-07T12:06:08;1.40;;;1.30;;
66256;SDS011;53049;43.446;3.698;2023-05-07T12:08:36;5.13;;;1.65;;
66256;SDS011;53049;43.446;3.698;2023-05-07T12:11:03;1.50;;;1.25;;
66256;SDS011;53049;43.446;3.698;2023-05-07T12:13:31;2.10;;;1.60;;
66256;SDS011;53049;43.446;3.698;2023-05-07T12:15:57;3.03;;;1.50;;
66256;SDS011;53049;43.446;3.698;2023-05-07T12:18:23;1.30;;;1.20;;
66256;SDS011;53049;43.446;3.698;2023-05-07T12:20:50;1.63;;;1.27;;
66256;SDS011;53049;43.446;3.698;2023-05-07T12:23:16;2.05;;;1.50;;
66256;SDS011;53049;43.446;3.698;2023-05-07T12:25:42;1.63;;;1.50;;
66256;SDS011;53049;43.446;3.698;2023-05-07T12:28:18;1.83;;;1.30;;
66256;SDS011;53049;43.446;3.698;2023-05-07T12:30:44;2.67;;;1.60;;
66256;SDS011;53049;43.446;3.698;2023-05-07T12:33:12;4.45;;;1.75;;
66256;SDS011;53049;43.446;3.698;2023-05-07T12:35:42;2.13;;;1.30;;
66256;SDS011;53049;43.446;3.698;2023-05-07T12:38:09;2.10;;;1.30;;
66256;SDS011;53049;43.446;3.698;2023-05-07T12:40:39;1.35;;;1.20;;
66256;SDS011;53049;43.446;3.698;2023-05-07T12:48:12;2.38;;;1.60;;
66256;SDS011;53049;43.446;3.698;2023-05-07T12:50:37;2.83;;;1.40;;
66256;SDS011;53049;43.446;3.698;2023-05-07T12:53:04;2.95;;;1.40;;
66256;SDS011;53049;43.446;3.698;2023-05-07T12:55:31;0.98;;;0.98;;
66256;SDS011;53049;43.446;3.698;2023-05-07T12:58:00;3.72;;;1.30;;
66256;SDS011;53049;43.446;3.698;2023-05-07T13:00:34;2.55;;;1.40;;
66256;SDS011;53049;43.446;3.698;2023-05-07T13:03:03;2.45;;;1.27;;
66256;SDS011;53049;43.446;3.698;2023-05-07T13:05:30;3.38;;;1.45;;
66256;SDS011;53049;43.446;3.698;2023-05-07T13:07:57;1.67;;;1.20;;
66256;SDS011;53049;43.446;3.698;2023-05-07T13:10:23;2.63;;;1.58;;
66256;SDS011;53049;43.446;3.698;2023-05-07T13:12:50;1.30;;;1.20;;
66256;SDS011;53049;43.446;3.698;2023-05-07T13:15:16;4.22;;;1.40;;
66256;SDS011;53049;43.446;3.698;2023-05-07T13:17:42;2.47;;;1.30;;
66256;SDS011;53049;43.446;3.698;2023-05-07T13:20:09;1.85;;;1.17;;
66256;SDS011;53049;43.446;3.698;2023-05-07T13:22:36;1.25;;;1.10;;
66256;SDS011;53049;43.446;3.698;2023-05-07T13:25:02;1.55;;;1.30;;
66256;SDS011;53049;43.446;3.698;2023-05-07T13:27:27;2.13;;;1.13;;
66256;SDS011;53049;43.446;3.698;2023-05-07T13:29:55;1.65;;;1.45;;
66256;SDS011;53049;43.446;3.698;2023-05-07T13:32:21;4.25;;;1.60;;
66256;SDS011;53049;43.446;3.698;2023-05-07T13:34:47;2.03;;;1.40;;
66256;SDS011;53049;43.446;3.698;2023-05-07T13:37:12;3.00;;;1.33;;
66256;SDS011;53049;43.446;3.698;2023-05-07T13:39:38;2.47;;;1.33;;
66256;SDS011;53049;43.446;3.698;2023-05-07T13:42:03;1.92;;;1.40;;
66256;SDS011;53049;43.446;3.698;2023-05-07T13:44:29;2.20;;;1.25;;
66256;SDS011;53049;43.446;3.698;2023-05-07T13:46:55;3.08;;;1.40;;
66256;SDS011;53049;43.446;3.698;2023-05-07T13:49:21;2.85;;;1.35;;
66256;SDS011;53049;43.446;3.698;2023-05-07T13:51:46;3.22;;;1.50;;
66256;SDS011;53049;43.446;3.698;2023-05-07T13:54:12;5.72;;;1.30;;
66256;SDS011;53049;43.446;3.698;2023-05-07T13:56:37;2.67;;;1.13;;
66256;SDS011;53049;43.446;3.698;2023-05-07T13:59:04;3.33;;;1.50;;
66256;SDS011;53049;43.446;3.698;2023-05-07T14:01:30;4.60;;;1.50;;
66256;SDS011;53049;43.446;3.698;2023-05-07T14:03:56;3.95;;;1.50;;
66256;SDS011;53049;43.446;3.698;2023-05-07T14:06:23;5.47;;;1.50;;
66256;SDS011;53049;43.446;3.698;2023-05-07T14:08:48;5.85;;;1.90;;
66256;SDS011;53049;43.446;3.698;2023-05-07T14:11:14;3.42;;;1.50;;
66256;SDS011;53049;43.446;3.698;2023-05-07T14:13:39;2.75;;;1.60;;
66256;SDS011;53049;43.446;3.698;2023-05-07T14:16:05;2.72;;;1.33;;
66256;SDS011;53049;43.446;3.698;2023-05-07T14:18:31;4.68;;;1.60;;
66256;SDS011;53049;43.446;3.698;2023-05-07T14:20:58;2.50;;;1.27;;
66256;SDS011;53049;43.446;3.698;2023-05-07T14:23:24;2.15;;;1.23;;
66256;SDS011;53049;43.446;3.698;2023-05-07T14:25:51;1.80;;;1.25;;
66256;SDS011;53049;43.446;3.698;2023-05-07T14:28:18;3.45;;;1.13;;
66256;SDS011;53049;43.446;3.698;2023-05-07T14:30:43;3.38;;;1.40;;
66256;SDS011;53049;43.446;3.698;2023-05-07T14:33:09;6.65;;;1.45;;
66256;SDS011;53049;43.446;3.698;2023-05-07T14:35:35;5.28;;;1.60;;
66256;SDS011;53049;43.446;3.698;2023-05-07T14:38:00;3.40;;;1.40;;
66256;SDS011;53049;43.446;3.698;2023-05-07T14:40:26;4.18;;;1.38;;
66256;SDS011;53049;43.446;3.698;2023-05-07T14:42:52;3.80;;;1.60;;
66256;SDS011;53049;43.446;3.698;2023-05-07T14:45:17;2.15;;;1.23;;
66256;SDS011;53049;43.446;3.698;2023-05-07T14:47:43;4.88;;;1.65;;
66256;SDS011;53049;43.446;3.698;2023-05-07T14:50:09;4.32;;;2.00;;
66256;SDS011;53049;43.446;3.698;2023-05-07T14:52:35;3.45;;;1.52;;
66256;SDS011;53049;43.446;3.698;2023-05-07T14:55:02;2.90;;;1.45;;
66256;SDS011;53049;43.446;3.698;2023-05-07T14:57:27;2.80;;;1.45;;
66256;SDS011;53049;43.446;3.698;2023-05-07T14:59:53;3.63;;;1.60;;
66256;SDS011;53049;43.446;3.698;2023-05-07T15:02:19;4.18;;;1.60;;
66256;SDS011;53049;43.446;3.698;2023-05-07T15:04:45;6.47;;;1.60;;